Time;durP1;ratioP1;P1;durP2;ratioP2;P2;SDS_P1;SDS_P2;PMS_P1;PMS_P2;Temp;Humidity;BMP_temperature;BMP_pressure;BME280_temperature;BME280_humidity;BME280_pressure;Samples;Min_cycle;Max_cycle;Signal;HPM_P1;HPM_P2
2021/06/22 00:00:25;;;;;;;71.28;40.53;;;;;;;18.71;90.74;93013.13;729922;40;20046;-88
2021/06/22 00:00:56;;;;;;;74.93;37.38;;;;;;;18.76;90.09;93035.97;725743;40;20078;-86
2021/06/22 00:01:26;;;;;;;62.05;35.20;;;;;;;18.99;89.06;93070.19;730941;40;20034;-90
2021/06/22 00:01:57;;;;;;;64.72;35.70;;;;;;;19.14;88.33;93111.97;730937;40;20574;-87
2021/06/22 00:02:27;;;;;;;61.08;31.95;;;;;;;19.00;87.67;93124.44;731780;40;20671;-87
2021/06/22 00:02:58;;;;;;;57.08;31.42;;;;;;;19.18;86.45;93139.28;731573;40;20210;-86
2021/06/22 00:03:29;;;;;;;35.25;18.20;;;;;;;19.16;82.72;93130.88;731917;40;21659;-85
2021/06/22 00:04:00;;;;;;;42.35;16.40;;;;;;;19.20;81.78;93163.47;729048;40;20051;-84
2021/06/22 00:04:31;;;;;;;22.95;10.82;;;;;;;18.84;78.38;93137.22;728739;40;20038;-81
2021/06/22 00:05:03;;;;;;;24.60;13.40;;;;;;;18.91;79.51;93193.66;728731;40;20057;-85
2021/06/22 00:05:35;;;;;;;18.05;8.93;;;;;;;18.78;75.81;93155.00;726959;40;20082;-86
2021/06/22 00:06:08;;;;;;;17.45;7.38;;;;;;;18.34;77.39;93143.34;720631;40;20099;-86
2021/06/22 00:06:39;;;;;;;17.00;6.13;;;;;;;18.14;76.53;93147.19;718969;40;20416;-83
2021/06/22 00:07:13;;;;;;;11.68;6.32;;;;;;;18.10;78.07;93162.00;724774;40;20370;-84
2021/06/22 00:07:56;;;;;;;18.92;6.10;;;;;;;17.92;77.62;93158.41;727824;40;20067;-86
2021/06/22 00:08:26;;;;;;;15.68;5.40;;;;;;;17.79;77.88;93160.00;729834;40;20113;-86
2021/06/22 00:08:57;;;;;;;7.97;3.47;;;;;;;17.65;77.26;93130.25;730011;40;20042;-87
2021/06/22 00:09:27;;;;;;;11.35;3.38;;;;;;;17.28;77.47;93128.59;727746;40;20094;-87
2021/06/22 00:09:58;;;;;;;8.43;3.40;;;;;;;17.41;78.92;93135.69;728412;40;20078;-87
2021/06/22 00:10:31;;;;;;;12.60;5.80;;;;;;;17.42;80.06;93136.50;727773;40;20146;-85
2021/06/22 00:11:02;;;;;;;22.80;6.00;;;;;;;17.43;80.96;93165.09;729687;40;20038;-87
2021/06/22 00:11:32;;;;;;;25.63;6.57;;;;;;;17.11;81.96;93153.56;724753;40;20058;-86
2021/06/22 00:12:03;;;;;;;28.30;6.93;;;;;;;16.92;83.74;93168.59;730751;40;20066;-86
2021/06/22 00:12:34;;;;;;;32.22;6.00;;;;;;;16.57;83.02;93139.19;730631;40;20042;-87
2021/06/22 00:13:08;;;;;;;35.58;6.35;;;;;;;16.62;84.09;93175.88;729816;40;20056;-87
2021/06/22 00:14:32;;;;;;;25.15;4.85;;;;;;;16.08;84.88;93158.78;730534;40;20164;-87
2021/06/22 00:16:48;;;;;;;13.45;4.18;;;;;;;15.87;87.62;93152.25;701817;41;20248;-86
2021/06/22 00:17:19;;;;;;;13.27;3.88;;;;;;;15.53;88.32;93103.31;718469;41;20057;-86
2021/06/22 00:17:52;;;;;;;14.35;4.00;;;;;;;15.93;88.51;93178.13;717639;41;20061;-87
2021/06/22 00:18:23;;;;;;;19.48;5.65;;;;;;;15.65;88.13;93174.50;719118;41;20073;-85
2021/06/22 00:18:53;;;;;;;26.67;5.70;;;;;;;15.64;90.54;93175.53;718947;40;20040;-88
2021/06/22 00:19:24;;;;;;;27.88;5.47;;;;;;;15.62;90.19;93161.94;721405;41;20072;-85
2021/06/22 00:19:54;;;;;;;16.77;5.05;;;;;;;15.59;89.42;93179.03;718722;41;20358;-86
2021/06/22 00:20:25;;;;;;;18.67;4.75;;;;;;;15.57;90.58;93175.88;722494;40;20040;-85
2021/06/22 00:20:55;;;;;;;15.25;4.65;;;;;;;15.52;89.37;93180.41;717802;41;20075;-86
2021/06/22 00:21:26;;;;;;;21.50;5.40;;;;;;;15.26;90.19;93164.16;718587;41;20069;-85
2021/06/22 00:21:56;;;;;;;12.82;4.60;;;;;;;15.28;90.02;93178.53;718303;41;20080;-84
2021/06/22 00:22:27;;;;;;;15.32;4.47;;;;;;;15.42;90.35;93176.06;714479;41;20055;-86
2021/06/22 00:22:57;;;;;;;18.90;5.00;;;;;;;15.28;90.19;93183.78;719894;41;20040;-85
2021/06/22 00:23:28;;;;;;;23.98;5.15;;;;;;;14.95;90.65;93127.00;722529;40;20724;-86
2021/06/22 00:23:58;;;;;;;21.80;5.68;;;;;;;14.78;90.91;93122.16;719672;41;20036;-87
2021/06/22 00:24:29;;;;;;;19.98;5.70;;;;;;;15.10;91.01;93160.91;718989;40;20446;-85
2021/06/22 00:24:59;;;;;;;16.42;5.60;;;;;;;15.00;91.47;93151.31;717781;41;20076;-86
2021/06/22 00:25:31;;;;;;;22.33;5.72;;;;;;;15.05;91.97;93156.50;716152;41;20270;-84
2021/06/22 00:26:02;;;;;;;12.57;4.78;;;;;;;15.25;92.35;93173.88;716094;41;20049;-85
2021/06/22 00:26:32;;;;;;;18.67;5.60;;;;;;;15.40;92.68;93187.88;721166;40;20192;-86
2021/06/22 00:27:03;;;;;;;23.80;6.65;;;;;;;15.31;93.30;93185.84;720814;40;20147;-85
2021/06/22 00:27:34;;;;;;;15.13;5.40;;;;;;;15.41;92.95;93192.03;721755;40;20048;-85
2021/06/22 00:28:05;;;;;;;19.58;5.28;;;;;;;15.18;92.67;93170.78;722536;40;20099;-84
2021/06/22 00:28:35;;;;;;;20.75;5.68;;;;;;;15.24;92.75;93180.13;722863;40;20051;-85
2021/06/22 00:29:06;;;;;;;20.88;4.80;;;;;;;15.19;92.40;93179.41;724052;40;20044;-86
2021/06/22 00:29:37;;;;;;;23.33;6.00;;;;;;;15.22;92.65;93190.13;722994;40;20473;-86
2021/06/22 00:30:09;;;;;;;70.45;7.78;;;;;;;15.25;93.34;93186.97;722851;40;20032;-85
2021/06/22 00:30:40;;;;;;;16.52;6.28;;;;;;;15.28;93.18;93175.16;720719;40;20040;-86
2021/06/22 00:31:12;;;;;;;28.17;6.35;;;;;;;15.34;92.81;93187.13;720794;40;20060;-85
2021/06/22 00:31:43;;;;;;;23.45;6.15;;;;;;;15.31;93.06;93188.47;720828;40;20051;-86
2021/06/22 00:32:13;;;;;;;24.92;6.28;;;;;;;15.16;92.84;93175.53;719165;40;20040;-84
2021/06/22 00:32:44;;;;;;;23.33;5.53;;;;;;;15.17;93.13;93160.59;720934;41;20048;-85
2021/06/22 00:33:15;;;;;;;18.65;6.05;;;;;;;15.28;92.80;93172.53;721685;40;20087;-85
2021/06/22 00:33:46;;;;;;;18.08;5.93;;;;;;;15.45;92.69;93187.78;722903;40;20051;-85
2021/06/22 00:34:16;;;;;;;16.15;5.53;;;;;;;15.33;92.41;93173.25;723604;40;20047;-85
2021/06/22 00:34:47;;;;;;;15.98;6.18;;;;;;;15.04;92.57;93136.63;723372;40;20062;-86
2021/06/22 00:35:18;;;;;;;18.88;5.80;;;;;;;15.21;92.55;93170.22;724969;40;20040;-85
2021/06/22 00:35:48;;;;;;;15.00;5.82;;;;;;;15.24;92.83;93164.44;724163;40;20044;-86
2021/06/22 00:36:19;;;;;;;14.13;5.60;;;;;;;15.17;93.10;93150.88;722953;40;20068;-85
2021/06/22 00:36:49;;;;;;;16.13;6.45;;;;;;;15.37;93.42;93153.28;720765;40;20104;-85
2021/06/22 00:37:20;;;;;;;17.33;5.78;;;;;;;15.52;93.11;93162.06;722321;40;20060;-85
2021/06/22 00:37:50;;;;;;;21.77;5.95;;;;;;;15.27;92.80;93129.81;720992;40;20052;-86
2021/06/22 00:38:21;;;;;;;13.35;5.63;;;;;;;15.47;92.49;93154.25;721829;40;21181;-85
2021/06/22 00:38:52;;;;;;;22.30;5.38;;;;;;;15.35;92.50;93134.44;721092;40;20051;-85
2021/06/22 00:39:22;;;;;;;12.07;5.60;;;;;;;15.35;92.43;93137.06;721516;40;20055;-84
2021/06/22 00:39:52;;;;;;;21.27;4.57;;;;;;;15.36;92.21;93129.97;720552;40;20221;-85
2021/06/22 00:40:23;;;;;;;25.15;6.10;;;;;;;15.43;92.20;93124.44;722097;40;20254;-85
2021/06/22 00:40:54;;;;;;;23.23;5.43;;;;;;;15.51;92.70;93121.19;721970;40;20051;-85
2021/06/22 00:41:25;;;;;;;22.15;5.45;;;;;;;15.56;92.45;93126.34;724179;40;20148;-85
2021/06/22 00:41:55;;;;;;;16.77;5.10;;;;;;;15.26;92.23;93091.59;722794;40;20059;-85
2021/06/22 00:42:26;;;;;;;21.63;6.60;;;;;;;15.39;93.40;93116.34;722750;40;20044;-84
2021/06/22 00:42:56;;;;;;;14.20;5.28;;;;;;;15.36;93.11;93109.00;720299;40;20097;-85
2021/06/22 00:43:27;;;;;;;18.88;5.70;;;;;;;15.37;93.04;93097.50;722328;40;23059;-86
2021/06/22 00:44:08;;;;;;;17.73;5.18;;;;;;;15.51;93.28;93108.09;718267;41;20120;-85
2021/06/22 00:44:52;;;;;;;14.82;4.90;;;;;;;15.40;92.75;93088.31;720826;40;20047;-86
2021/06/22 00:45:31;;;;;;;19.25;5.43;;;;;;;15.45;92.95;93090.84;720156;40;20043;-84
2021/06/22 00:46:01;;;;;;;18.77;5.13;;;;;;;15.36;93.20;93075.75;719234;40;20041;-86
2021/06/22 00:46:33;;;;;;;17.95;5.65;;;;;;;15.35;92.66;93089.91;719163;41;20055;-85
2021/06/22 00:47:03;;;;;;;19.70;5.60;;;;;;;15.37;93.24;93093.03;717111;40;20045;-86
2021/06/22 00:47:34;;;;;;;14.20;5.10;;;;;;;15.30;93.31;93087.38;722432;40;20040;-86
2021/06/22 00:48:05;;;;;;;12.35;5.40;;;;;;;15.29;93.05;93085.00;723832;40;20048;-85
2021/06/22 00:48:35;;;;;;;13.98;5.22;;;;;;;15.40;92.79;93098.78;726964;40;20043;-85
2021/06/22 00:49:06;;;;;;;16.00;6.18;;;;;;;15.45;92.96;93098.69;728967;40;20038;-84
2021/06/22 00:49:37;;;;;;;15.27;5.60;;;;;;;15.37;93.19;93087.78;728990;40;20183;-85
2021/06/22 00:50:09;;;;;;;12.07;5.95;;;;;;;15.25;93.07;93048.13;726864;40;20294;-85
2021/06/22 00:50:39;;;;;;;25.95;5.63;;;;;;;15.48;93.22;93088.47;727012;40;20043;-86
2021/06/22 00:51:10;;;;;;;20.52;6.15;;;;;;;15.57;93.15;93092.00;723029;40;20063;-85
2021/06/22 00:51:43;;;;;;;14.25;6.43;;;;;;;15.53;92.91;93096.22;720751;40;20047;-84
2021/06/22 00:52:14;;;;;;;13.73;5.95;;;;;;;15.34;93.25;93069.22;724089;40;20028;-85
2021/06/22 00:52:45;;;;;;;18.15;6.40;;;;;;;15.59;93.46;93096.97;725435;40;20194;-85
2021/06/22 00:53:15;;;;;;;16.45;6.28;;;;;;;15.57;93.54;93099.09;728095;40;20049;-85
2021/06/22 00:53:46;;;;;;;12.38;5.45;;;;;;;15.55;93.58;93099.38;728682;40;20031;-85
2021/06/22 00:54:16;;;;;;;26.83;6.65;;;;;;;15.39;93.75;93069.19;727504;40;20061;-84
2021/06/22 00:54:47;;;;;;;12.07;5.75;;;;;;;15.62;93.47;93099.00;732448;40;20037;-84
2021/06/22 00:55:33;;;;;;;14.80;5.15;;;;;;;15.77;92.94;93098.88;732045;40;20058;-86
2021/06/22 00:56:04;;;;;;;11.77;5.28;;;;;;;15.33;93.03;93047.50;727108;40;20322;-86
2021/06/22 00:56:35;;;;;;;13.55;5.40;;;;;;;15.50;93.01;93075.84;726929;40;20079;-85
2021/06/22 00:57:09;;;;;;;10.43;5.90;;;;;;;15.64;92.92;93091.66;725665;40;20071;-85
2021/06/22 00:57:40;;;;;;;10.15;5.40;;;;;;;15.62;92.66;93096.41;725135;40;20043;-85
2021/06/22 00:58:11;;;;;;;17.92;5.95;;;;;;;15.68;93.25;93102.38;721703;40;20074;-85
2021/06/22 00:58:44;;;;;;;16.40;6.22;;;;;;;15.76;93.58;93099.91;725606;40;20050;-85
2021/06/22 00:59:15;;;;;;;17.48;7.40;;;;;;;15.77;93.19;93101.50;725868;40;20039;-84
2021/06/22 00:59:46;;;;;;;14.32;5.97;;;;;;;15.81;92.71;93112.19;723629;40;20050;-84
2021/06/22 01:00:17;;;;;;;13.45;5.95;;;;;;;15.75;92.75;93092.34;728128;40;20067;-85
2021/06/22 01:00:49;;;;;;;13.50;5.97;;;;;;;15.77;92.79;93104.13;729092;40;20101;-85
2021/06/22 01:01:19;;;;;;;17.33;6.10;;;;;;;15.79;92.60;93098.56;730033;40;20055;-85
2021/06/22 01:01:51;;;;;;;13.70;5.70;;;;;;;15.75;92.47;93093.13;727160;40;20051;-84
2021/06/22 01:02:21;;;;;;;11.70;5.60;;;;;;;15.73;92.56;93090.00;728132;40;20342;-85
2021/06/22 01:03:01;;;;;;;15.60;6.35;;;;;;;15.73;92.66;93089.22;727453;40;20044;-85
2021/06/22 01:03:31;;;;;;;13.95;5.85;;;;;;;15.67;92.90;93092.94;727759;40;20054;-87
2021/06/22 01:04:02;;;;;;;14.75;6.38;;;;;;;15.64;93.12;93094.28;727333;40;20446;-83
2021/06/22 01:04:33;;;;;;;20.23;6.05;;;;;;;15.65;93.01;93092.44;727703;40;20039;-84
2021/06/22 01:05:05;;;;;;;16.80;6.70;;;;;;;15.74;93.21;93107.31;726529;40;20700;-84
2021/06/22 01:05:35;;;;;;;12.75;6.43;;;;;;;15.73;93.07;93097.09;727418;40;20177;-84
2021/06/22 01:06:06;;;;;;;14.23;5.55;;;;;;;15.78;92.83;93112.75;727842;40;20388;-84
2021/06/22 01:06:36;;;;;;;13.95;5.80;;;;;;;15.71;93.44;93115.72;725982;40;20043;-85
2021/06/22 01:07:11;;;;;;;12.80;5.55;;;;;;;15.76;93.32;93114.88;725537;40;20075;-85
2021/06/22 01:07:42;;;;;;;16.55;6.80;;;;;;;15.63;93.47;93105.84;725520;40;20039;-83
2021/06/22 01:08:13;;;;;;;16.80;7.10;;;;;;;15.73;93.97;93113.59;724362;40;20094;-83
2021/06/22 01:08:45;;;;;;;13.93;7.18;;;;;;;15.66;93.81;93105.28;726224;40;20103;-84
2021/06/22 01:09:15;;;;;;;14.02;7.05;;;;;;;15.77;93.74;93117.22;728229;40;20141;-84
2021/06/22 01:09:46;;;;;;;16.13;6.70;;;;;;;15.75;93.50;93124.59;727572;40;20050;-85
2021/06/22 01:10:16;;;;;;;14.30;8.10;;;;;;;15.71;93.92;93125.44;727665;40;20357;-83
2021/06/22 01:10:47;;;;;;;14.93;7.70;;;;;;;15.64;93.72;93123.13;728346;40;20113;-84
2021/06/22 01:11:17;;;;;;;11.32;6.57;;;;;;;15.74;93.38;93133.53;729244;40;20035;-83
2021/06/22 01:11:48;;;;;;;15.40;7.70;;;;;;;15.64;93.62;93133.59;726757;40;20066;-85
2021/06/22 01:12:19;;;;;;;16.55;8.02;;;;;;;15.53;94.02;93109.34;727323;40;20046;-84
2021/06/22 01:12:51;;;;;;;16.52;7.28;;;;;;;15.81;93.53;93144.44;726748;40;20414;-84
2021/06/22 01:13:21;;;;;;;16.45;7.10;;;;;;;15.58;93.81;93126.84;727761;40;20137;-84
2021/06/22 01:13:52;;;;;;;18.10;6.57;;;;;;;15.73;93.48;93142.44;727332;40;20185;-84
2021/06/22 01:14:23;;;;;;;18.35;6.88;;;;;;;15.87;93.73;93158.25;727227;40;20043;-84
2021/06/22 01:14:54;;;;;;;17.25;7.05;;;;;;;15.87;93.38;93168.75;727099;40;20035;-85
2021/06/22 01:15:28;;;;;;;13.70;6.65;;;;;;;15.78;93.35;93158.09;727475;40;20059;-84
2021/06/22 01:15:58;;;;;;;20.10;8.07;;;;;;;15.80;93.91;93163.09;726346;40;20067;-84
2021/06/22 01:16:29;;;;;;;11.13;7.10;;;;;;;15.76;93.76;93172.56;728990;40;20046;-85
2021/06/22 01:17:00;;;;;;;12.80;6.90;;;;;;;15.70;93.83;93166.59;729056;40;20070;-86
2021/06/22 01:17:30;;;;;;;15.43;7.13;;;;;;;15.76;93.85;93157.59;733074;40;20061;-85
2021/06/22 01:18:04;;;;;;;10.68;6.50;;;;;;;15.92;93.79;93176.56;733045;40;20042;-85
2021/06/22 01:18:34;;;;;;;14.07;6.53;;;;;;;15.89;93.91;93173.72;733224;40;20046;-84
2021/06/22 01:19:08;;;;;;;19.77;7.97;;;;;;;15.90;94.37;93173.44;731738;40;20150;-85
2021/06/22 01:19:39;;;;;;;14.02;7.63;;;;;;;15.91;94.35;93168.97;732959;40;20038;-86
2021/06/22 01:20:11;;;;;;;13.90;7.22;;;;;;;15.85;93.49;93175.34;732729;40;20088;-84
2021/06/22 01:20:42;;;;;;;19.75;7.05;;;;;;;15.80;93.63;93171.72;725352;40;20086;-85
2021/06/22 01:21:13;;;;;;;17.48;8.05;;;;;;;15.87;93.69;93184.47;731963;40;20077;-84
2021/06/22 01:21:44;;;;;;;13.85;7.80;;;;;;;15.91;93.81;93182.06;732069;40;20078;-85
2021/06/22 01:22:14;;;;;;;17.55;7.65;;;;;;;15.89;93.81;93171.88;732277;40;20507;-84
2021/06/22 01:22:46;;;;;;;12.68;7.63;;;;;;;15.98;93.77;93188.53;731793;40;20034;-84
2021/06/22 01:23:16;;;;;;;22.83;8.27;;;;;;;15.84;93.47;93181.66;732225;40;20049;-85
2021/06/22 01:23:47;;;;;;;14.35;7.43;;;;;;;15.82;93.67;93184.53;727702;40;20359;-85
2021/06/22 01:24:21;;;;;;;19.65;7.90;;;;;;;15.88;93.52;93185.25;728581;40;20047;-85
2021/06/22 01:24:53;;;;;;;13.80;6.82;;;;;;;15.92;93.58;93181.81;726986;40;20070;-85
2021/06/22 01:25:23;;;;;;;13.88;7.22;;;;;;;15.90;93.94;93177.91;727329;40;20415;-84
2021/06/22 01:25:54;;;;;;;19.00;8.98;;;;;;;15.86;94.00;93172.44;727803;40;20053;-84
2021/06/22 01:26:24;;;;;;;35.38;10.75;;;;;;;15.77;94.40;93177.53;732285;40;20089;-84
2021/06/22 01:27:00;;;;;;;16.77;8.63;;;;;;;15.84;94.14;93197.38;731530;40;20445;-83
2021/06/22 01:27:31;;;;;;;22.48;10.32;;;;;;;15.85;94.99;93196.31;728993;40;20393;-84
2021/06/22 01:28:02;;;;;;;23.33;10.13;;;;;;;15.84;94.83;93200.78;725035;40;20074;-85
2021/06/22 01:28:34;;;;;;;19.02;9.95;;;;;;;15.87;94.96;93186.34;729679;40;20050;-88
2021/06/22 01:29:06;;;;;;;19.45;8.65;;;;;;;16.08;94.19;93206.00;730008;40;20891;-84
2021/06/22 01:29:37;;;;;;;13.95;7.85;;;;;;;15.99;93.80;93190.09;730212;40;20077;-84
2021/06/22 01:30:09;;;;;;;14.77;7.32;;;;;;;16.08;93.96;93202.59;728898;40;20249;-85
2021/06/22 01:30:40;;;;;;;20.00;8.05;;;;;;;15.98;94.11;93198.25;730198;40;20100;-84
2021/06/22 01:31:11;;;;;;;20.38;8.63;;;;;;;15.95;94.38;93206.69;730373;40;20125;-83
2021/06/22 01:31:42;;;;;;;17.85;9.93;;;;;;;15.93;94.22;93195.69;733188;40;20042;-85
2021/06/22 01:32:13;;;;;;;23.90;10.27;;;;;;;15.85;94.27;93180.56;729269;40;20035;-84
2021/06/22 01:32:43;;;;;;;16.02;9.13;;;;;;;15.92;93.99;93187.06;730703;40;20038;-84
2021/06/22 01:33:14;;;;;;;17.10;9.13;;;;;;;15.79;94.35;93178.03;731265;40;20063;-84
2021/06/22 01:33:48;;;;;;;15.98;9.35;;;;;;;15.84;94.77;93187.66;731136;40;20035;-84
2021/06/22 01:34:27;;;;;;;41.17;11.25;;;;;;;15.79;94.79;93185.91;733106;40;20038;-84
2021/06/22 01:34:58;;;;;;;25.92;10.45;;;;;;;15.74;94.94;93183.34;730893;40;20079;-85
2021/06/22 01:35:28;;;;;;;22.38;10.05;;;;;;;15.88;94.57;93195.75;731772;40;20038;-85
2021/06/22 01:36:01;;;;;;;20.02;9.18;;;;;;;15.99;94.39;93205.84;731143;40;20066;-83
2021/06/22 01:36:34;;;;;;;15.80;9.13;;;;;;;15.96;94.07;93203.00;732015;40;20041;-85
2021/06/22 01:37:08;;;;;;;14.85;7.90;;;;;;;16.12;93.54;93209.63;732730;40;20186;-85
2021/06/22 01:38:06;;;;;;;26.40;10.02;;;;;;;16.18;93.72;93205.88;729945;40;20451;-84
2021/06/22 01:38:36;;;;;;;18.85;8.38;;;;;;;16.34;93.58;93210.91;723255;40;20055;-85
2021/06/22 01:39:12;;;;;;;14.38;7.32;;;;;;;16.17;93.14;93196.47;729005;40;20050;-84
2021/06/22 01:39:42;;;;;;;19.48;7.47;;;;;;;16.13;93.38;93205.94;730550;40;20051;-84
2021/06/22 01:40:13;;;;;;;16.77;8.32;;;;;;;16.05;93.63;93209.19;731168;40;20135;-84
2021/06/22 01:40:49;;;;;;;16.80;7.90;;;;;;;16.08;93.68;93221.72;730935;40;20161;-84
2021/06/22 01:41:19;;;;;;;23.55;8.35;;;;;;;16.22;93.51;93225.22;731268;40;20076;-88
2021/06/22 01:41:50;;;;;;;21.13;8.50;;;;;;;16.26;92.68;93228.88;728852;40;20045;-85
2021/06/22 01:42:20;;;;;;;17.02;7.07;;;;;;;16.10;92.79;93222.25;729582;40;20049;-84
2021/06/22 01:42:52;;;;;;;16.77;7.57;;;;;;;16.23;93.15;93236.53;728370;40;20059;-84
2021/06/22 01:43:24;;;;;;;14.98;7.55;;;;;;;16.18;92.75;93228.72;730412;40;20211;-84
2021/06/22 01:43:55;;;;;;;26.08;9.05;;;;;;;16.01;93.84;93226.56;731725;40;20546;-85
2021/06/22 01:44:27;;;;;;;19.98;9.30;;;;;;;16.00;93.97;93225.00;732821;40;20054;-84
2021/06/22 01:44:58;;;;;;;17.70;9.40;;;;;;;16.17;93.67;93235.81;731893;40;20037;-84
2021/06/22 01:45:30;;;;;;;23.48;9.68;;;;;;;16.02;93.74;93230.72;730084;40;20037;-84
2021/06/22 01:46:00;;;;;;;31.48;12.35;;;;;;;16.05;94.61;93238.03;724492;40;20427;-84
2021/06/22 01:46:31;;;;;;;36.10;11.65;;;;;;;16.07;94.37;93230.69;730389;40;21011;-83
2021/06/22 01:47:04;;;;;;;26.95;10.80;;;;;;;16.04;94.36;93234.63;729625;40;20522;-84
2021/06/22 01:47:35;;;;;;;18.77;9.15;;;;;;;15.84;94.17;93210.50;732671;40;20052;-85
2021/06/22 01:48:05;;;;;;;20.23;9.20;;;;;;;15.91;94.02;93214.34;731691;40;20037;-84
2021/06/22 01:48:36;;;;;;;24.67;9.48;;;;;;;15.93;93.78;93211.44;732648;40;20049;-84
2021/06/22 01:49:07;;;;;;;16.58;8.93;;;;;;;15.92;93.90;93210.66;729559;40;20068;-84
2021/06/22 01:49:37;;;;;;;26.98;9.48;;;;;;;15.88;94.25;93206.25;732722;40;20071;-85
2021/06/22 01:50:09;;;;;;;23.90;8.65;;;;;;;15.96;94.39;93223.97;731768;40;20041;-84
2021/06/22 01:50:40;;;;;;;65.30;12.65;;;;;;;16.00;95.63;93225.78;732069;40;20033;-86
2021/06/22 01:51:11;;;;;;;72.45;14.57;;;;;;;16.02;95.35;93225.47;725737;40;20061;-83
2021/06/22 01:51:41;;;;;;;29.10;12.30;;;;;;;15.99;94.96;93228.66;730814;40;20038;-84
2021/06/22 01:52:16;;;;;;;123.18;15.73;;;;;;;16.01;95.70;93218.69;731703;40;20041;-84
2021/06/22 01:52:48;;;;;;;81.95;15.95;;;;;;;16.14;95.83;93236.38;725213;40;20450;-84
2021/06/22 01:53:19;;;;;;;32.83;11.50;;;;;;;16.04;95.29;93237.25;729755;40;20092;-83
2021/06/22 01:53:56;;;;;;;19.88;9.50;;;;;;;16.13;94.72;93237.41;729238;40;20220;-87
2021/06/22 01:54:27;;;;;;;15.75;8.35;;;;;;;16.09;94.52;93243.53;728779;40;20086;-84
2021/06/22 01:54:59;;;;;;;22.95;9.43;;;;;;;16.05;94.51;93240.66;726987;40;20138;-84
2021/06/22 01:56:07;;;;;;;15.25;8.00;;;;;;;16.03;94.19;93211.31;729767;40;20038;-84
2021/06/22 01:56:38;;;;;;;15.23;8.15;;;;;;;16.45;93.87;93230.72;729755;40;20058;-83
2021/06/22 01:57:08;;;;;;;19.00;8.27;;;;;;;16.43;93.19;93231.03;725260;40;20718;-83
2021/06/22 01:57:39;;;;;;;17.00;8.13;;;;;;;16.43;91.89;93238.88;732754;40;20433;-84
2021/06/22 01:58:12;;;;;;;18.98;8.02;;;;;;;16.38;92.94;93253.91;730659;40;20050;-84
2021/06/22 01:58:42;;;;;;;13.63;7.47;;;;;;;16.31;92.99;93238.50;729562;40;20038;-84
2021/06/22 01:59:13;;;;;;;23.65;7.95;;;;;;;16.35;92.83;93259.75;730560;40;20062;-84
2021/06/22 01:59:44;;;;;;;17.67;7.22;;;;;;;16.28;92.91;93260.06;730585;40;20059;-84
2021/06/22 02:00:16;;;;;;;22.45;8.77;;;;;;;16.16;93.22;93249.97;731015;40;20113;-84
2021/06/22 02:00:50;;;;;;;23.15;7.15;;;;;;;16.12;93.05;93248.97;730148;40;20038;-84
2021/06/22 02:01:21;;;;;;;14.48;7.55;;;;;;;16.18;93.82;93260.19;730351;40;20088;-83
2021/06/22 02:01:51;;;;;;;13.60;8.00;;;;;;;16.13;93.91;93261.03;724947;40;20031;-84
2021/06/22 02:02:22;;;;;;;46.88;10.82;;;;;;;16.16;94.43;93265.72;730930;40;20058;-83
2021/06/22 02:02:52;;;;;;;30.08;11.32;;;;;;;16.23;94.76;93253.06;729628;40;20057;-84
2021/06/22 02:03:26;;;;;;;22.15;10.93;;;;;;;16.30;94.79;93263.19;730399;40;20054;-84
2021/06/22 02:03:57;;;;;;;57.65;13.30;;;;;;;16.17;94.84;93224.50;719523;40;20054;-84
2021/06/22 02:04:28;;;;;;;25.58;9.45;;;;;;;16.31;94.40;93256.09;728241;40;20058;-85
2021/06/22 02:04:58;;;;;;;23.08;9.38;;;;;;;16.26;94.87;93251.72;727676;40;20301;-86
2021/06/22 02:05:29;;;;;;;27.17;10.07;;;;;;;16.16;94.68;93239.47;730397;40;20086;-85
2021/06/22 02:05:59;;;;;;;28.00;11.75;;;;;;;16.32;94.63;93271.56;730268;40;20043;-84
2021/06/22 02:06:30;;;;;;;19.25;9.80;;;;;;;16.42;93.65;93260.94;731033;40;20038;-86
2021/06/22 02:07:01;;;;;;;15.98;8.95;;;;;;;16.60;93.26;93262.00;730439;40;20061;-84
2021/06/22 02:07:31;;;;;;;18.83;8.85;;;;;;;16.66;92.50;93263.53;730545;40;20070;-85
2021/06/22 02:08:02;;;;;;;15.43;7.55;;;;;;;16.43;91.80;93246.75;730310;40;20046;-86
2021/06/22 02:08:33;;;;;;;15.90;8.55;;;;;;;16.51;92.04;93266.34;731274;40;20541;-86
2021/06/22 02:09:04;;;;;;;17.83;9.15;;;;;;;16.34;92.84;93266.03;728610;40;20038;-83
2021/06/22 02:09:35;;;;;;;20.42;9.65;;;;;;;16.22;93.02;93259.34;728681;40;20057;-83
2021/06/22 02:10:07;;;;;;;19.15;9.90;;;;;;;16.20;93.17;93253.63;730464;40;20146;-84
2021/06/22 02:10:38;;;;;;;20.73;10.52;;;;;;;16.25;93.76;93263.25;724850;40;21323;-84
2021/06/22 02:11:08;;;;;;;31.83;11.30;;;;;;;16.18;94.08;93249.69;730551;40;20074;-86
2021/06/22 02:11:39;;;;;;;23.45;10.68;;;;;;;16.26;94.54;93259.59;732204;40;20088;-84
2021/06/22 02:12:10;;;;;;;21.88;12.07;;;;;;;16.31;94.34;93240.34;732840;40;20341;-84
2021/06/22 02:12:40;;;;;;;41.85;12.25;;;;;;;16.37;94.18;93254.97;732300;40;20256;-84
2021/06/22 02:13:12;;;;;;;23.02;10.70;;;;;;;16.38;94.03;93251.31;729633;40;20083;-84
2021/06/22 02:13:42;;;;;;;77.40;13.32;;;;;;;16.29;94.49;93248.53;721522;40;20725;-84
2021/06/22 02:14:13;;;;;;;21.02;12.07;;;;;;;16.35;93.77;93251.88;726297;40;20042;-85
2021/06/22 02:14:43;;;;;;;25.92;12.40;;;;;;;16.32;94.23;93250.59;730570;40;20160;-83
2021/06/22 02:15:15;;;;;;;28.10;12.30;;;;;;;16.30;93.76;93249.28;730303;40;20035;-85
2021/06/22 02:15:46;;;;;;;17.95;9.35;;;;;;;16.55;93.20;93256.84;728083;40;20050;-84
2021/06/22 02:16:18;;;;;;;20.00;9.70;;;;;;;16.48;93.38;93251.16;729825;40;20049;-84
2021/06/22 02:16:49;;;;;;;19.88;9.88;;;;;;;16.47;93.48;93255.63;729040;40;20041;-84
2021/06/22 02:17:19;;;;;;;18.10;10.57;;;;;;;16.49;93.21;93258.75;730259;40;20043;-84
2021/06/22 02:17:50;;;;;;;19.17;10.85;;;;;;;16.34;93.08;93237.16;729922;40;20074;-84
2021/06/22 02:18:21;;;;;;;22.88;11.75;;;;;;;16.45;93.17;93259.59;730016;40;20045;-84
2021/06/22 02:18:51;;;;;;;21.75;11.40;;;;;;;16.34;92.96;93240.56;732259;40;20057;-84
2021/06/22 02:19:22;;;;;;;29.45;11.82;;;;;;;16.38;92.87;93248.69;733204;40;20492;-85
2021/06/22 02:19:56;;;;;;;19.10;11.32;;;;;;;16.40;92.86;93251.78;732464;40;20133;-85
2021/06/22 02:20:27;;;;;;;21.25;11.35;;;;;;;16.25;93.03;93237.78;731606;40;20263;-84
2021/06/22 02:20:57;;;;;;;17.23;11.95;;;;;;;16.21;93.31;93231.56;722057;40;20074;-84
2021/06/22 02:21:28;;;;;;;17.95;12.02;;;;;;;16.27;93.11;93251.41;729038;40;20169;-84
2021/06/22 02:21:58;;;;;;;26.38;12.55;;;;;;;16.41;93.50;93243.63;730628;40;20065;-84
2021/06/22 02:22:29;;;;;;;19.08;10.93;;;;;;;16.42;92.67;93252.28;729978;40;20041;-84
2021/06/22 02:23:00;;;;;;;23.27;11.25;;;;;;;16.33;92.79;93241.63;730437;40;20046;-84
2021/06/22 02:23:30;;;;;;;24.30;12.05;;;;;;;16.32;92.95;93249.81;730115;40;20120;-84
2021/06/22 02:24:01;;;;;;;21.15;11.38;;;;;;;16.41;93.23;93248.09;731563;40;20304;-84
2021/06/22 02:24:31;;;;;;;22.45;12.85;;;;;;;16.21;93.42;93226.31;729716;40;20069;-84
2021/06/22 02:25:04;;;;;;;27.83;12.27;;;;;;;16.40;93.31;93244.72;728163;40;20085;-84
2021/06/22 02:25:34;;;;;;;21.60;13.43;;;;;;;16.15;93.13;93200.41;728787;40;20740;-84
2021/06/22 02:26:06;;;;;;;23.50;12.70;;;;;;;16.34;93.00;93237.94;731027;40;20038;-84
2021/06/22 02:26:50;;;;;;;26.02;12.88;;;;;;;16.45;93.05;93239.38;726746;40;20146;-84
2021/06/22 02:27:26;;;;;;;35.63;15.48;;;;;;;16.20;93.46;93213.44;723602;40;20062;-84
2021/06/22 02:28:22;;;;;;;23.73;13.73;;;;;;;16.32;93.21;93226.19;726460;40;20097;-84
2021/06/22 02:28:52;;;;;;;21.00;12.38;;;;;;;16.24;93.38;93217.88;722820;40;20133;-84
2021/06/22 02:29:23;;;;;;;23.10;14.65;;;;;;;16.19;93.70;93214.53;728726;40;20082;-83
2021/06/22 02:29:54;;;;;;;34.25;16.15;;;;;;;16.15;93.84;93209.06;732569;40;20090;-84
2021/06/22 02:30:25;;;;;;;27.65;15.30;;;;;;;16.25;93.92;93216.78;726804;40;20031;-84
2021/06/22 02:30:56;;;;;;;30.42;15.57;;;;;;;16.21;94.11;93215.03;732412;40;20042;-84
2021/06/22 02:31:26;;;;;;;32.50;15.45;;;;;;;16.26;94.04;93228.88;726478;40;20038;-84
2021/06/22 02:31:57;;;;;;;33.28;14.93;;;;;;;16.19;93.86;93201.41;721775;40;20039;-85